sensor_id;sensor_type;location;lat;lon;timestamp;P1;durP1;ratioP1;P2;durP2;ratioP2
26634;SDS011;14490;54.208;37.686;2022-08-21T00:01:24;3.42;;;1.40;;
26634;SDS011;14490;54.208;37.686;2022-08-21T00:03:55;4.45;;;1.55;;
26634;SDS011;14490;54.208;37.686;2022-08-21T00:06:23;7.00;;;2.47;;
26634;SDS011;14490;54.208;37.686;2022-08-21T00:08:52;1.92;;;1.45;;
26634;SDS011;14490;54.208;37.686;2022-08-21T00:11:20;5.20;;;1.00;;
26634;SDS011;14490;54.208;37.686;2022-08-21T00:13:47;1.25;;;0.95;;
26634;SDS011;14490;54.208;37.686;2022-08-21T00:16:15;2.20;;;0.95;;
26634;SDS011;14490;54.208;37.686;2022-08-21T00:18:42;4.80;;;1.45;;
26634;SDS011;14490;54.208;37.686;2022-08-21T00:21:10;1.65;;;1.02;;
26634;SDS011;14490;54.208;37.686;2022-08-21T00:23:39;7.35;;;1.55;;
26634;SDS011;14490;54.208;37.686;2022-08-21T00:26:08;4.15;;;0.98;;
26634;SDS011;14490;54.208;37.686;2022-08-21T00:28:36;4.00;;;1.30;;
26634;SDS011;14490;54.208;37.686;2022-08-21T00:31:03;10.60;;;1.92;;
26634;SDS011;14490;54.208;37.686;2022-08-21T00:33:32;3.13;;;1.38;;
26634;SDS011;14490;54.208;37.686;2022-08-21T00:36:00;7.18;;;1.83;;
26634;SDS011;14490;54.208;37.686;2022-08-21T00:38:28;3.85;;;1.20;;
26634;SDS011;14490;54.208;37.686;2022-08-21T00:40:57;7.35;;;1.23;;
26634;SDS011;14490;54.208;37.686;2022-08-21T00:43:30;3.17;;;1.40;;
26634;SDS011;14490;54.208;37.686;2022-08-21T00:46:02;2.90;;;1.60;;
26634;SDS011;14490;54.208;37.686;2022-08-21T00:48:32;3.30;;;0.80;;
26634;SDS011;14490;54.208;37.686;2022-08-21T00:51:02;6.30;;;1.35;;
26634;SDS011;14490;54.208;37.686;2022-08-21T00:53:34;6.97;;;1.13;;
26634;SDS011;14490;54.208;37.686;2022-08-21T00:56:05;4.07;;;1.30;;
26634;SDS011;14490;54.208;37.686;2022-08-21T00:58:36;1.90;;;0.93;;
26634;SDS011;14490;54.208;37.686;2022-08-21T01:01:07;3.70;;;1.27;;
26634;SDS011;14490;54.208;37.686;2022-08-21T01:03:35;1.88;;;1.15;;
26634;SDS011;14490;54.208;37.686;2022-08-21T01:06:04;5.10;;;1.85;;
26634;SDS011;14490;54.208;37.686;2022-08-21T01:08:33;4.32;;;1.35;;
26634;SDS011;14490;54.208;37.686;2022-08-21T01:11:02;1.83;;;1.40;;
26634;SDS011;14490;54.208;37.686;2022-08-21T01:13:31;1.98;;;1.20;;
26634;SDS011;14490;54.208;37.686;2022-08-21T01:16:11;5.63;;;1.33;;
26634;SDS011;14490;54.208;37.686;2022-08-21T01:18:44;8.18;;;1.60;;
26634;SDS011;14490;54.208;37.686;2022-08-21T01:21:15;1.17;;;0.80;;
26634;SDS011;14490;54.208;37.686;2022-08-21T01:23:48;7.53;;;1.20;;
26634;SDS011;14490;54.208;37.686;2022-08-21T01:26:21;4.97;;;1.50;;
26634;SDS011;14490;54.208;37.686;2022-08-21T01:28:54;8.25;;;1.60;;
26634;SDS011;14490;54.208;37.686;2022-08-21T01:31:28;3.58;;;1.35;;
26634;SDS011;14490;54.208;37.686;2022-08-21T01:33:58;4.00;;;2.00;;
26634;SDS011;14490;54.208;37.686;2022-08-21T01:36:28;3.33;;;1.25;;
26634;SDS011;14490;54.208;37.686;2022-08-21T01:38:56;3.63;;;1.55;;
26634;SDS011;14490;54.208;37.686;2022-08-21T01:41:24;7.32;;;1.80;;
26634;SDS011;14490;54.208;37.686;2022-08-21T01:43:51;1.88;;;1.17;;
26634;SDS011;14490;54.208;37.686;2022-08-21T01:46:19;3.83;;;1.55;;
26634;SDS011;14490;54.208;37.686;2022-08-21T01:48:47;6.40;;;1.70;;
26634;SDS011;14490;54.208;37.686;2022-08-21T01:51:14;2.88;;;1.48;;
26634;SDS011;14490;54.208;37.686;2022-08-21T01:53:43;4.20;;;1.20;;
26634;SDS011;14490;54.208;37.686;2022-08-21T01:56:12;3.97;;;1.30;;
26634;SDS011;14490;54.208;37.686;2022-08-21T01:58:42;7.38;;;1.35;;
26634;SDS011;14490;54.208;37.686;2022-08-21T02:01:12;2.15;;;0.98;;
26634;SDS011;14490;54.208;37.686;2022-08-21T02:03:40;3.65;;;1.45;;
26634;SDS011;14490;54.208;37.686;2022-08-21T02:06:11;5.60;;;1.77;;
26634;SDS011;14490;54.208;37.686;2022-08-21T02:08:44;4.65;;;1.52;;
26634;SDS011;14490;54.208;37.686;2022-08-21T02:11:12;2.83;;;1.23;;
26634;SDS011;14490;54.208;37.686;2022-08-21T02:13:40;3.45;;;1.30;;
26634;SDS011;14490;54.208;37.686;2022-08-21T02:16:08;3.17;;;1.42;;
26634;SDS011;14490;54.208;37.686;2022-08-21T02:18:37;5.43;;;1.55;;
26634;SDS011;14490;54.208;37.686;2022-08-21T02:21:04;4.63;;;1.45;;
26634;SDS011;14490;54.208;37.686;2022-08-21T02:23:32;5.80;;;1.25;;
26634;SDS011;14490;54.208;37.686;2022-08-21T02:26:04;3.78;;;1.55;;
26634;SDS011;14490;54.208;37.686;2022-08-21T02:28:34;2.17;;;1.20;;
26634;SDS011;14490;54.208;37.686;2022-08-21T02:31:03;5.68;;;2.00;;
26634;SDS011;14490;54.208;37.686;2022-08-21T02:33:32;2.53;;;1.83;;
26634;SDS011;14490;54.208;37.686;2022-08-21T02:36:00;6.68;;;1.35;;
26634;SDS011;14490;54.208;37.686;2022-08-21T02:38:30;1.88;;;1.23;;
26634;SDS011;14490;54.208;37.686;2022-08-21T02:41:05;3.20;;;1.20;;
26634;SDS011;14490;54.208;37.686;2022-08-21T02:43:35;6.68;;;1.30;;
26634;SDS011;14490;54.208;37.686;2022-08-21T02:46:03;3.08;;;1.08;;
26634;SDS011;14490;54.208;37.686;2022-08-21T02:48:33;1.92;;;1.33;;
26634;SDS011;14490;54.208;37.686;2022-08-21T02:51:03;7.18;;;1.50;;
26634;SDS011;14490;54.208;37.686;2022-08-21T02:53:33;5.63;;;1.23;;
26634;SDS011;14490;54.208;37.686;2022-08-21T02:56:03;3.25;;;1.65;;
26634;SDS011;14490;54.208;37.686;2022-08-21T02:58:38;3.78;;;1.40;;
26634;SDS011;14490;54.208;37.686;2022-08-21T03:01:08;2.53;;;0.75;;
26634;SDS011;14490;54.208;37.686;2022-08-21T03:03:38;1.58;;;1.08;;
26634;SDS011;14490;54.208;37.686;2022-08-21T03:06:09;3.80;;;1.53;;
26634;SDS011;14490;54.208;37.686;2022-08-21T03:08:38;3.25;;;1.27;;
26634;SDS011;14490;54.208;37.686;2022-08-21T03:11:07;4.55;;;1.30;;
26634;SDS011;14490;54.208;37.686;2022-08-21T03:13:35;1.58;;;1.10;;
26634;SDS011;14490;54.208;37.686;2022-08-21T03:16:04;4.85;;;1.23;;
26634;SDS011;14490;54.208;37.686;2022-08-21T03:18:32;2.60;;;1.33;;
26634;SDS011;14490;54.208;37.686;2022-08-21T03:21:00;2.20;;;1.17;;
26634;SDS011;14490;54.208;37.686;2022-08-21T03:23:28;3.85;;;1.20;;
26634;SDS011;14490;54.208;37.686;2022-08-21T03:25:56;3.00;;;1.40;;
26634;SDS011;14490;54.208;37.686;2022-08-21T03:28:25;4.00;;;1.50;;
26634;SDS011;14490;54.208;37.686;2022-08-21T03:30:52;3.58;;;1.50;;
26634;SDS011;14490;54.208;37.686;2022-08-21T03:33:20;4.03;;;1.23;;
26634;SDS011;14490;54.208;37.686;2022-08-21T03:35:50;7.57;;;1.40;;
26634;SDS011;14490;54.208;37.686;2022-08-21T03:38:26;5.15;;;1.33;;
26634;SDS011;14490;54.208;37.686;2022-08-21T03:40:56;2.83;;;1.55;;
26634;SDS011;14490;54.208;37.686;2022-08-21T03:43:25;6.30;;;1.40;;
26634;SDS011;14490;54.208;37.686;2022-08-21T03:45:53;4.07;;;1.40;;
26634;SDS011;14490;54.208;37.686;2022-08-21T03:48:21;4.38;;;1.60;;
26634;SDS011;14490;54.208;37.686;2022-08-21T03:50:51;4.32;;;1.42;;
26634;SDS011;14490;54.208;37.686;2022-08-21T03:53:19;4.18;;;1.83;;
26634;SDS011;14490;54.208;37.686;2022-08-21T03:55:48;5.50;;;1.75;;
26634;SDS011;14490;54.208;37.686;2022-08-21T03:58:18;4.22;;;2.13;;
26634;SDS011;14490;54.208;37.686;2022-08-21T04:00:50;3.00;;;1.70;;
26634;SDS011;14490;54.208;37.686;2022-08-21T04:03:21;4.07;;;1.27;;
26634;SDS011;14490;54.208;37.686;2022-08-21T04:05:49;4.80;;;1.58;;
26634;SDS011;14490;54.208;37.686;2022-08-21T04:08:17;5.20;;;2.00;;
26634;SDS011;14490;54.208;37.686;2022-08-21T04:10:46;4.72;;;1.75;;
26634;SDS011;14490;54.208;37.686;2022-08-21T04:13:17;10.52;;;2.10;;
26634;SDS011;14490;54.208;37.686;2022-08-21T04:15:45;3.92;;;1.60;;
26634;SDS011;14490;54.208;37.686;2022-08-21T04:18:15;4.97;;;2.30;;
26634;SDS011;14490;54.208;37.686;2022-08-21T04:20:43;4.13;;;1.85;;
26634;SDS011;14490;54.208;37.686;2022-08-21T04:23:13;9.50;;;1.83;;
26634;SDS011;14490;54.208;37.686;2022-08-21T04:25:41;7.25;;;2.20;;
26634;SDS011;14490;54.208;37.686;2022-08-21T04:28:08;5.47;;;1.60;;
26634;SDS011;14490;54.208;37.686;2022-08-21T04:30:36;2.85;;;1.60;;
26634;SDS011;14490;54.208;37.686;2022-08-21T04:33:04;5.53;;;1.55;;
26634;SDS011;14490;54.208;37.686;2022-08-21T04:35:33;4.95;;;1.98;;
26634;SDS011;14490;54.208;37.686;2022-08-21T04:38:01;14.70;;;2.35;;
26634;SDS011;14490;54.208;37.686;2022-08-21T04:40:28;7.25;;;2.40;;
26634;SDS011;14490;54.208;37.686;2022-08-21T04:42:57;2.90;;;1.42;;
26634;SDS011;14490;54.208;37.686;2022-08-21T04:45:30;3.17;;;1.77;;
26634;SDS011;14490;54.208;37.686;2022-08-21T04:48:02;2.63;;;1.50;;
26634;SDS011;14490;54.208;37.686;2022-08-21T04:50:36;4.63;;;1.90;;
26634;SDS011;14490;54.208;37.686;2022-08-21T04:53:12;5.40;;;2.45;;
26634;SDS011;14490;54.208;37.686;2022-08-21T04:55:44;8.05;;;3.03;;
26634;SDS011;14490;54.208;37.686;2022-08-21T04:58:15;5.82;;;3.22;;
26634;SDS011;14490;54.208;37.686;2022-08-21T05:00:45;7.93;;;3.03;;
26634;SDS011;14490;54.208;37.686;2022-08-21T05:03:14;10.73;;;5.32;;
26634;SDS011;14490;54.208;37.686;2022-08-21T05:05:45;9.43;;;5.03;;
26634;SDS011;14490;54.208;37.686;2022-08-21T05:08:14;13.02;;;5.65;;
26634;SDS011;14490;54.208;37.686;2022-08-21T05:10:45;11.95;;;6.43;;
26634;SDS011;14490;54.208;37.686;2022-08-21T05:13:14;14.90;;;4.57;;
26634;SDS011;14490;54.208;37.686;2022-08-21T05:15:42;6.43;;;3.00;;
26634;SDS011;14490;54.208;37.686;2022-08-21T05:18:10;8.18;;;3.70;;
26634;SDS011;14490;54.208;37.686;2022-08-21T05:20:37;11.05;;;6.05;;
26634;SDS011;14490;54.208;37.686;2022-08-21T05:23:08;7.97;;;3.80;;
26634;SDS011;14490;54.208;37.686;2022-08-21T05:25:36;12.95;;;4.20;;
26634;SDS011;14490;54.208;37.686;2022-08-21T05:28:04;16.77;;;6.25;;
26634;SDS011;14490;54.208;37.686;2022-08-21T05:30:32;12.65;;;4.32;;
26634;SDS011;14490;54.208;37.686;2022-08-21T05:33:01;5.68;;;4.07;;
26634;SDS011;14490;54.208;37.686;2022-08-21T05:35:31;7.78;;;2.80;;
26634;SDS011;14490;54.208;37.686;2022-08-21T05:37:59;6.82;;;2.80;;
26634;SDS011;14490;54.208;37.686;2022-08-21T05:40:29;8.20;;;2.38;;
26634;SDS011;14490;54.208;37.686;2022-08-21T05:42:57;6.70;;;2.70;;
26634;SDS011;14490;54.208;37.686;2022-08-21T05:45:26;4.55;;;2.22;;
26634;SDS011;14490;54.208;37.686;2022-08-21T05:48:04;4.97;;;1.60;;
26634;SDS011;14490;54.208;37.686;2022-08-21T05:50:33;3.40;;;1.70;;
26634;SDS011;14490;54.208;37.686;2022-08-21T05:53:02;4.78;;;1.83;;
26634;SDS011;14490;54.208;37.686;2022-08-21T05:55:32;3.15;;;1.75;;
26634;SDS011;14490;54.208;37.686;2022-08-21T05:58:02;6.72;;;1.63;;
26634;SDS011;14490;54.208;37.686;2022-08-21T06:00:30;4.00;;;1.60;;
26634;SDS011;14490;54.208;37.686;2022-08-21T06:02:59;3.17;;;2.15;;
26634;SDS011;14490;54.208;37.686;2022-08-21T06:05:27;2.63;;;1.60;;
26634;SDS011;14490;54.208;37.686;2022-08-21T06:07:55;4.35;;;1.30;;
26634;SDS011;14490;54.208;37.686;2022-08-21T06:10:24;4.72;;;1.60;;
26634;SDS011;14490;54.208;37.686;2022-08-21T06:12:54;4.63;;;1.83;;
26634;SDS011;14490;54.208;37.686;2022-08-21T06:15:21;3.70;;;1.42;;
26634;SDS011;14490;54.208;37.686;2022-08-21T06:17:49;2.35;;;1.33;;
26634;SDS011;14490;54.208;37.686;2022-08-21T06:20:17;9.07;;;2.25;;
26634;SDS011;14490;54.208;37.686;2022-08-21T06:22:45;2.90;;;1.63;;
26634;SDS011;14490;54.208;37.686;2022-08-21T06:25:12;4.93;;;1.92;;
26634;SDS011;14490;54.208;37.686;2022-08-21T06:27:40;6.75;;;1.98;;
26634;SDS011;14490;54.208;37.686;2022-08-21T06:30:10;6.85;;;2.00;;
26634;SDS011;14490;54.208;37.686;2022-08-21T06:32:38;9.90;;;1.73;;
26634;SDS011;14490;54.208;37.686;2022-08-21T06:35:06;3.90;;;2.08;;
26634;SDS011;14490;54.208;37.686;2022-08-21T06:37:35;4.25;;;2.03;;
26634;SDS011;14490;54.208;37.686;2022-08-21T06:40:03;4.95;;;2.20;;
26634;SDS011;14490;54.208;37.686;2022-08-21T06:42:32;6.28;;;1.98;;
26634;SDS011;14490;54.208;37.686;2022-08-21T06:44:59;3.20;;;1.73;;
26634;SDS011;14490;54.208;37.686;2022-08-21T06:47:29;3.80;;;1.85;;
26634;SDS011;14490;54.208;37.686;2022-08-21T06:49:57;4.05;;;1.63;;
26634;SDS011;14490;54.208;37.686;2022-08-21T06:52:25;7.70;;;3.45;;
26634;SDS011;14490;54.208;37.686;2022-08-21T06:54:52;5.95;;;2.00;;
26634;SDS011;14490;54.208;37.686;2022-08-21T06:57:20;3.60;;;1.48;;
26634;SDS011;14490;54.208;37.686;2022-08-21T06:59:48;5.68;;;1.33;;
26634;SDS011;14490;54.208;37.686;2022-08-21T07:02:16;2.97;;;1.20;;
26634;SDS011;14490;54.208;37.686;2022-08-21T07:04:46;2.28;;;1.23;;
26634;SDS011;14490;54.208;37.686;2022-08-21T07:07:13;2.53;;;1.27;;
26634;SDS011;14490;54.208;37.686;2022-08-21T07:09:41;6.38;;;1.40;;
26634;SDS011;14490;54.208;37.686;2022-08-21T07:12:09;3.45;;;1.10;;
26634;SDS011;14490;54.208;37.686;2022-08-21T07:14:37;4.90;;;1.27;;
26634;SDS011;14490;54.208;37.686;2022-08-21T07:17:04;5.82;;;1.35;;
26634;SDS011;14490;54.208;37.686;2022-08-21T07:19:32;6.60;;;1.30;;
26634;SDS011;14490;54.208;37.686;2022-08-21T07:22:02;2.22;;;1.50;;
26634;SDS011;14490;54.208;37.686;2022-08-21T07:24:31;3.13;;;1.00;;
26634;SDS011;14490;54.208;37.686;2022-08-21T07:26:59;6.72;;;1.20;;
26634;SDS011;14490;54.208;37.686;2022-08-21T07:29:27;3.53;;;1.00;;
26634;SDS011;14490;54.208;37.686;2022-08-21T07:31:54;3.38;;;1.10;;
26634;SDS011;14490;54.208;37.686;2022-08-21T07:34:22;4.82;;;1.23;;
26634;SDS011;14490;54.208;37.686;2022-08-21T07:36:49;2.08;;;1.10;;
26634;SDS011;14490;54.208;37.686;2022-08-21T07:39:19;9.98;;;1.17;;
26634;SDS011;14490;54.208;37.686;2022-08-21T07:41:46;4.68;;;1.80;;
26634;SDS011;14490;54.208;37.686;2022-08-21T07:44:14;2.38;;;1.35;;
26634;SDS011;14490;54.208;37.686;2022-08-21T07:46:42;8.52;;;1.75;;
26634;SDS011;14490;54.208;37.686;2022-08-21T07:49:09;5.45;;;1.42;;
26634;SDS011;14490;54.208;37.686;2022-08-21T07:51:37;6.65;;;1.40;;
26634;SDS011;14490;54.208;37.686;2022-08-21T07:54:05;7.63;;;2.40;;
26634;SDS011;14490;54.208;37.686;2022-08-21T07:56:35;4.18;;;1.33;;
26634;SDS011;14490;54.208;37.686;2022-08-21T07:59:02;3.88;;;2.13;;
26634;SDS011;14490;54.208;37.686;2022-08-21T08:01:30;8.75;;;2.67;;
26634;SDS011;14490;54.208;37.686;2022-08-21T08:03:58;7.22;;;3.20;;
26634;SDS011;14490;54.208;37.686;2022-08-21T08:06:26;9.55;;;3.10;;
26634;SDS011;14490;54.208;37.686;2022-08-21T08:08:54;6.70;;;2.03;;
26634;SDS011;14490;54.208;37.686;2022-08-21T08:11:22;4.03;;;1.83;;
26634;SDS011;14490;54.208;37.686;2022-08-21T08:13:51;4.95;;;2.75;;
26634;SDS011;14490;54.208;37.686;2022-08-21T08:16:21;9.35;;;2.05;;
26634;SDS011;14490;54.208;37.686;2022-08-21T08:18:49;7.88;;;2.70;;
26634;SDS011;14490;54.208;37.686;2022-08-21T08:21:19;15.18;;;3.67;;
26634;SDS011;14490;54.208;37.686;2022-08-21T08:23:47;5.07;;;2.03;;
26634;SDS011;14490;54.208;37.686;2022-08-21T08:26:16;5.10;;;3.33;;
26634;SDS011;14490;54.208;37.686;2022-08-21T08:28:43;4.95;;;2.22;;
26634;SDS011;14490;54.208;37.686;2022-08-21T08:31:14;9.98;;;4.35;;
26634;SDS011;14490;54.208;37.686;2022-08-21T08:33:42;11.38;;;3.58;;
26634;SDS011;14490;54.208;37.686;2022-08-21T08:36:12;8.07;;;2.70;;
26634;SDS011;14490;54.208;37.686;2022-08-21T08:38:41;7.75;;;2.15;;
26634;SDS011;14490;54.208;37.686;2022-08-21T08:41:10;5.03;;;2.05;;
26634;SDS011;14490;54.208;37.686;2022-08-21T08:43:48;4.80;;;1.77;;
26634;SDS011;14490;54.208;37.686;2022-08-21T08:46:27;2.67;;;1.42;;
26634;SDS011;14490;54.208;37.686;2022-08-21T08:51:39;9.55;;;1.40;;
26634;SDS011;14490;54.208;37.686;2022-08-21T08:54:13;5.57;;;1.48;;
26634;SDS011;14490;54.208;37.686;2022-08-21T08:56:49;9.63;;;1.20;;
26634;SDS011;14490;54.208;37.686;2022-08-21T08:59:21;6.90;;;1.40;;
26634;SDS011;14490;54.208;37.686;2022-08-21T09:01:57;3.53;;;1.10;;
26634;SDS011;14490;54.208;37.686;2022-08-21T09:04:26;8.70;;;1.60;;
26634;SDS011;14490;54.208;37.686;2022-08-21T09:07:01;7.45;;;1.70;;
26634;SDS011;14490;54.208;37.686;2022-08-21T09:09:44;7.95;;;2.45;;
26634;SDS011;14490;54.208;37.686;2022-08-21T09:12:31;5.78;;;1.58;;
26634;SDS011;14490;54.208;37.686;2022-08-21T09:15:19;8.70;;;1.30;;
26634;SDS011;14490;54.208;37.686;2022-08-21T09:18:08;7.65;;;2.00;;
26634;SDS011;14490;54.208;37.686;2022-08-21T09:20:56;7.35;;;1.60;;
26634;SDS011;14490;54.208;37.686;2022-08-21T09:23:36;3.22;;;1.45;;
26634;SDS011;14490;54.208;37.686;2022-08-21T09:26:17;4.78;;;1.50;;
26634;SDS011;14490;54.208;37.686;2022-08-21T09:28:47;10.05;;;1.63;;
26634;SDS011;14490;54.208;37.686;2022-08-21T09:31:22;5.93;;;2.13;;
26634;SDS011;14490;54.208;37.686;2022-08-21T09:33:59;7.95;;;1.23;;
26634;SDS011;14490;54.208;37.686;2022-08-21T09:36:32;4.68;;;1.27;;
26634;SDS011;14490;54.208;37.686;2022-08-21T09:39:05;6.68;;;1.45;;
26634;SDS011;14490;54.208;37.686;2022-08-21T09:41:34;12.60;;;2.42;;
26634;SDS011;14490;54.208;37.686;2022-08-21T09:44:04;4.90;;;1.40;;
26634;SDS011;14490;54.208;37.686;2022-08-21T09:46:34;5.65;;;2.08;;
26634;SDS011;14490;54.208;37.686;2022-08-21T09:49:04;10.18;;;1.65;;
26634;SDS011;14490;54.208;37.686;2022-08-21T09:51:32;9.32;;;2.00;;
26634;SDS011;14490;54.208;37.686;2022-08-21T09:54:12;10.63;;;2.72;;
26634;SDS011;14490;54.208;37.686;2022-08-21T09:56:54;4.93;;;1.17;;
26634;SDS011;14490;54.208;37.686;2022-08-21T09:59:42;5.90;;;1.90;;
26634;SDS011;14490;54.208;37.686;2022-08-21T10:02:23;9.60;;;2.45;;
26634;SDS011;14490;54.208;37.686;2022-08-21T10:04:57;7.32;;;1.23;;
26634;SDS011;14490;54.208;37.686;2022-08-21T10:07:29;9.40;;;1.48;;
26634;SDS011;14490;54.208;37.686;2022-08-21T10:09:59;4.18;;;1.15;;
26634;SDS011;14490;54.208;37.686;2022-08-21T10:12:33;6.22;;;1.40;;
26634;SDS011;14490;54.208;37.686;2022-08-21T10:15:13;17.23;;;2.65;;
26634;SDS011;14490;54.208;37.686;2022-08-21T10:17:51;9.85;;;1.83;;
26634;SDS011;14490;54.208;37.686;2022-08-21T10:20:31;9.15;;;1.65;;
26634;SDS011;14490;54.208;37.686;2022-08-21T10:23:15;22.88;;;2.22;;
26634;SDS011;14490;54.208;37.686;2022-08-21T10:25:58;5.82;;;1.15;;
26634;SDS011;14490;54.208;37.686;2022-08-21T10:28:36;10.80;;;1.73;;
26634;SDS011;14490;54.208;37.686;2022-08-21T10:31:13;7.72;;;1.90;;
26634;SDS011;14490;54.208;37.686;2022-08-21T10:33:53;17.40;;;2.28;;
26634;SDS011;14490;54.208;37.686;2022-08-21T10:36:36;7.97;;;1.52;;
26634;SDS011;14490;54.208;37.686;2022-08-21T10:39:13;10.48;;;1.83;;
26634;SDS011;14490;54.208;37.686;2022-08-21T10:41:57;6.47;;;1.92;;
26634;SDS011;14490;54.208;37.686;2022-08-21T10:44:46;11.40;;;2.00;;
26634;SDS011;14490;54.208;37.686;2022-08-21T10:47:26;13.35;;;2.03;;
26634;SDS011;14490;54.208;37.686;2022-08-21T10:50:04;17.95;;;2.25;;
26634;SDS011;14490;54.208;37.686;2022-08-21T10:52:49;11.07;;;1.75;;
26634;SDS011;14490;54.208;37.686;2022-08-21T10:55:30;12.55;;;1.90;;
26634;SDS011;14490;54.208;37.686;2022-08-21T10:58:03;16.33;;;2.20;;
26634;SDS011;14490;54.208;37.686;2022-08-21T11:00:39;13.48;;;2.15;;
26634;SDS011;14490;54.208;37.686;2022-08-21T11:03:13;12.38;;;2.22;;
26634;SDS011;14490;54.208;37.686;2022-08-21T11:05:46;12.38;;;2.53;;
26634;SDS011;14490;54.208;37.686;2022-08-21T11:08:21;17.25;;;2.10;;
26634;SDS011;14490;54.208;37.686;2022-08-21T11:10:55;16.40;;;3.17;;
26634;SDS011;14490;54.208;37.686;2022-08-21T11:13:31;13.40;;;2.65;;
26634;SDS011;14490;54.208;37.686;2022-08-21T11:16:10;9.25;;;1.30;;
26634;SDS011;14490;54.208;37.686;2022-08-21T11:18:50;9.38;;;2.60;;
26634;SDS011;14490;54.208;37.686;2022-08-21T11:21:27;11.88;;;1.88;;
26634;SDS011;14490;54.208;37.686;2022-08-21T11:24:11;15.40;;;2.60;;
26634;SDS011;14490;54.208;37.686;2022-08-21T11:26:52;16.80;;;1.73;;
26634;SDS011;14490;54.208;37.686;2022-08-21T11:29:33;9.48;;;2.58;;
26634;SDS011;14490;54.208;37.686;2022-08-21T11:32:09;12.55;;;2.08;;
26634;SDS011;14490;54.208;37.686;2022-08-21T11:35:08;11.55;;;1.85;;
26634;SDS011;14490;54.208;37.686;2022-08-21T11:37:48;12.18;;;1.73;;
26634;SDS011;14490;54.208;37.686;2022-08-21T11:40:34;6.78;;;1.35;;
26634;SDS011;14490;54.208;37.686;2022-08-21T11:43:18;7.85;;;1.55;;
26634;SDS011;14490;54.208;37.686;2022-08-21T11:46:00;6.68;;;1.30;;
26634;SDS011;14490;54.208;37.686;2022-08-21T11:48:54;10.52;;;1.80;;
26634;SDS011;14490;54.208;37.686;2022-08-21T11:51:44;8.95;;;1.50;;
26634;SDS011;14490;54.208;37.686;2022-08-21T11:54:20;9.02;;;2.35;;
26634;SDS011;14490;54.208;37.686;2022-08-21T11:56:57;3.58;;;1.05;;
26634;SDS011;14490;54.208;37.686;2022-08-21T11:59:36;9.90;;;2.08;;
26634;SDS011;14490;54.208;37.686;2022-08-21T12:02:12;5.97;;;1.50;;
26634;SDS011;14490;54.208;37.686;2022-08-21T12:04:44;8.45;;;1.83;;
26634;SDS011;14490;54.208;37.686;2022-08-21T12:07:16;8.25;;;1.33;;
26634;SDS011;14490;54.208;37.686;2022-08-21T12:09:57;9.63;;;1.38;;
26634;SDS011;14490;54.208;37.686;2022-08-21T12:12:33;9.88;;;2.63;;
26634;SDS011;14490;54.208;37.686;2022-08-21T12:15:05;8.70;;;1.00;;
26634;SDS011;14490;54.208;37.686;2022-08-21T12:17:56;5.25;;;0.93;;
26634;SDS011;14490;54.208;37.686;2022-08-21T12:20:33;6.93;;;1.10;;
26634;SDS011;14490;54.208;37.686;2022-08-21T12:23:18;7.40;;;1.25;;
26634;SDS011;14490;54.208;37.686;2022-08-21T12:26:01;8.02;;;1.30;;
26634;SDS011;14490;54.208;37.686;2022-08-21T12:28:42;5.22;;;1.25;;
26634;SDS011;14490;54.208;37.686;2022-08-21T12:31:27;8.50;;;1.23;;
26634;SDS011;14490;54.208;37.686;2022-08-21T12:33:56;8.77;;;1.50;;
26634;SDS011;14490;54.208;37.686;2022-08-21T12:36:33;9.60;;;1.50;;
26634;SDS011;14490;54.208;37.686;2022-08-21T12:39:11;10.27;;;1.85;;
26634;SDS011;14490;54.208;37.686;2022-08-21T12:41:46;5.05;;;1.45;;
26634;SDS011;14490;54.208;37.686;2022-08-21T12:44:21;5.93;;;1.10;;
26634;SDS011;14490;54.208;37.686;2022-08-21T12:46:58;11.52;;;1.23;;
26634;SDS011;14490;54.208;37.686;2022-08-21T12:49:32;13.85;;;1.35;;
26634;SDS011;14490;54.208;37.686;2022-08-21T12:52:06;4.90;;;1.15;;
26634;SDS011;14490;54.208;37.686;2022-08-21T12:54:40;5.20;;;1.15;;
26634;SDS011;14490;54.208;37.686;2022-08-21T12:57:17;5.20;;;1.30;;
26634;SDS011;14490;54.208;37.686;2022-08-21T12:59:53;6.15;;;1.52;;
26634;SDS011;14490;54.208;37.686;2022-08-21T13:02:22;6.90;;;1.73;;
26634;SDS011;14490;54.208;37.686;2022-08-21T13:04:56;6.28;;;1.50;;
26634;SDS011;14490;54.208;37.686;2022-08-21T13:07:26;8.15;;;1.10;;
26634;SDS011;14490;54.208;37.686;2022-08-21T13:09:57;9.55;;;0.95;;
26634;SDS011;14490;54.208;37.686;2022-08-21T13:12:30;9.23;;;1.50;;
26634;SDS011;14490;54.208;37.686;2022-08-21T13:15:03;7.00;;;0.70;;
26634;SDS011;14490;54.208;37.686;2022-08-21T13:17:34;9.40;;;1.20;;
26634;SDS011;14490;54.208;37.686;2022-08-21T13:20:06;2.55;;;0.80;;
26634;SDS011;14490;54.208;37.686;2022-08-21T13:22:40;7.28;;;1.13;;
26634;SDS011;14490;54.208;37.686;2022-08-21T13:25:10;6.55;;;1.00;;
26634;SDS011;14490;54.208;37.686;2022-08-21T13:27:40;5.28;;;1.00;;
26634;SDS011;14490;54.208;37.686;2022-08-21T13:30:17;7.90;;;1.40;;
26634;SDS011;14490;54.208;37.686;2022-08-21T13:32:48;4.32;;;1.55;;
26634;SDS011;14490;54.208;37.686;2022-08-21T13:37:48;4.47;;;1.33;;
26634;SDS011;14490;54.208;37.686;2022-08-21T13:40:18;3.03;;;1.20;;
26634;SDS011;14490;54.208;37.686;2022-08-21T13:42:52;4.85;;;1.25;;
26634;SDS011;14490;54.208;37.686;2022-08-21T13:45:27;3.30;;;1.20;;
26634;SDS011;14490;54.208;37.686;2022-08-21T13:47:59;3.63;;;1.50;;
26634;SDS011;14490;54.208;37.686;2022-08-21T13:50:29;5.37;;;1.37;;
26634;SDS011;14490;54.208;37.686;2022-08-21T13:52:58;5.18;;;1.48;;
26634;SDS011;14490;54.208;37.686;2022-08-21T13:55:34;2.88;;;1.10;;
26634;SDS011;14490;54.208;37.686;2022-08-21T13:58:05;6.22;;;1.15;;
26634;SDS011;14490;54.208;37.686;2022-08-21T14:00:43;7.00;;;1.60;;
26634;SDS011;14490;54.208;37.686;2022-08-21T14:03:15;5.43;;;2.03;;
26634;SDS011;14490;54.208;37.686;2022-08-21T14:05:57;6.20;;;1.55;;
26634;SDS011;14490;54.208;37.686;2022-08-21T14:08:30;20.10;;;2.75;;
26634;SDS011;14490;54.208;37.686;2022-08-21T14:11:02;4.13;;;1.15;;
26634;SDS011;14490;54.208;37.686;2022-08-21T14:13:37;4.07;;;1.60;;
26634;SDS011;14490;54.208;37.686;2022-08-21T14:16:13;11.88;;;1.38;;
26634;SDS011;14490;54.208;37.686;2022-08-21T14:18:51;5.13;;;1.70;;
26634;SDS011;14490;54.208;37.686;2022-08-21T14:21:36;5.10;;;1.75;;
26634;SDS011;14490;54.208;37.686;2022-08-21T14:24:07;4.30;;;1.50;;
26634;SDS011;14490;54.208;37.686;2022-08-21T14:26:43;2.90;;;1.52;;
26634;SDS011;14490;54.208;37.686;2022-08-21T14:29:17;1.77;;;1.35;;
26634;SDS011;14490;54.208;37.686;2022-08-21T14:31:52;3.42;;;1.20;;
26634;SDS011;14490;54.208;37.686;2022-08-21T14:34:22;90.88;;;5.63;;
26634;SDS011;14490;54.208;37.686;2022-08-21T14:36:53;6.60;;;2.45;;
26634;SDS011;14490;54.208;37.686;2022-08-21T14:39:23;3.45;;;2.30;;
26634;SDS011;14490;54.208;37.686;2022-08-21T14:41:50;9.35;;;2.40;;
26634;SDS011;14490;54.208;37.686;2022-08-21T14:44:19;10.50;;;7.30;;
26634;SDS011;14490;54.208;37.686;2022-08-21T14:46:47;6.38;;;5.78;;
26634;SDS011;14490;54.208;37.686;2022-08-21T14:49:16;8.60;;;6.72;;
26634;SDS011;14490;54.208;37.686;2022-08-21T14:51:43;6.40;;;3.50;;
26634;SDS011;14490;54.208;37.686;2022-08-21T14:54:11;3.38;;;3.03;;
26634;SDS011;14490;54.208;37.686;2022-08-21T14:56:39;4.70;;;2.80;;
26634;SDS011;14490;54.208;37.686;2022-08-21T14:59:08;4.43;;;2.38;;
26634;SDS011;14490;54.208;37.686;2022-08-21T15:01:37;2.55;;;1.77;;
26634;SDS011;14490;54.208;37.686;2022-08-21T15:04:08;4.10;;;1.63;;
26634;SDS011;14490;54.208;37.686;2022-08-21T15:06:37;3.47;;;1.20;;